createdAt,value
2024-03-05T00:00:27.202Z,20.70
2024-03-05T00:02:53.879Z,22.58
2024-03-05T00:05:20.672Z,21.38
2024-03-05T00:07:47.485Z,20.20
2024-03-05T00:10:14.593Z,21.70
2024-03-05T00:12:41.656Z,22.23
2024-03-05T00:15:08.756Z,21.38
2024-03-05T00:17:35.507Z,22.10
2024-03-05T00:20:02.390Z,22.50
2024-03-05T00:22:29.377Z,23.08
2024-03-05T00:24:56.362Z,22.02
2024-03-05T00:27:23.114Z,22.25
2024-03-05T00:29:49.839Z,21.65
2024-03-05T00:32:17.057Z,22.75
2024-03-05T00:34:43.787Z,20.58
2024-03-05T00:37:10.551Z,21.25
2024-03-05T00:39:37.344Z,21.35
2024-03-05T00:42:04.892Z,20.65
2024-03-05T00:44:31.668Z,21.83
2024-03-05T00:46:58.519Z,21.15
2024-03-05T00:49:25.449Z,20.92
2024-03-05T00:51:52.137Z,20.38
2024-03-05T00:54:18.887Z,21.38
2024-03-05T00:56:45.716Z,21.15
2024-03-05T00:59:12.652Z,20.95
2024-03-05T01:01:40.827Z,21.25
2024-03-05T01:04:09.156Z,20.27
2024-03-05T01:06:36.029Z,19.42
2024-03-05T01:09:03.817Z,20.70
2024-03-05T01:11:31.107Z,22.58
2024-03-05T01:13:58.769Z,20.58
2024-03-05T01:16:27.607Z,21.95
2024-03-05T01:18:56.496Z,21.45
2024-03-05T01:21:23.282Z,21.45
2024-03-05T01:23:50.054Z,20.98
2024-03-05T01:26:16.901Z,20.02
2024-03-05T01:28:44.116Z,20.50
2024-03-05T01:31:10.918Z,19.02
2024-03-05T01:33:38.860Z,19.48
2024-03-05T01:36:05.852Z,20.30
2024-03-05T01:38:32.584Z,22.38
2024-03-05T01:40:59.333Z,21.35
2024-03-05T01:43:26.165Z,21.17
2024-03-05T01:45:52.870Z,21.17
2024-03-05T01:48:19.535Z,20.67
2024-03-05T01:50:46.423Z,21.65
2024-03-05T01:53:13.539Z,21.95
2024-03-05T01:55:40.473Z,20.88
2024-03-05T01:58:09.064Z,20.58
2024-03-05T02:00:38.846Z,21.40
2024-03-05T02:03:06.211Z,22.10
2024-03-05T02:05:34.053Z,20.52
2024-03-05T02:08:01.598Z,20.52
2024-03-05T02:10:28.511Z,19.17
2024-03-05T02:12:56.060Z,19.95
2024-03-05T02:15:22.801Z,18.15
2024-03-05T02:17:49.853Z,19.80
2024-03-05T02:20:16.642Z,18.48
2024-03-05T02:22:43.757Z,19.23
2024-03-05T02:25:10.956Z,19.83
2024-03-05T02:27:38.262Z,20.20
2024-03-05T02:30:11.644Z,19.20
2024-03-05T02:32:42.192Z,19.98
2024-03-05T02:35:10.023Z,20.70
2024-03-05T02:37:40.323Z,20.10
2024-03-05T02:40:11.083Z,20.55
2024-03-05T02:42:38.157Z,19.98
2024-03-05T02:45:08.611Z,22.70
2024-03-05T02:47:37.325Z,21.85
2024-03-05T02:50:10.083Z,23.98
2024-03-05T02:52:37.428Z,22.98
2024-03-05T02:55:04.437Z,23.35
2024-03-05T02:57:32.647Z,22.27
2024-03-05T02:59:59.305Z,24.35
2024-03-05T03:02:26.025Z,24.10
2024-03-05T03:04:52.899Z,26.10
2024-03-05T03:07:19.934Z,24.05
2024-03-05T03:09:47.670Z,24.42
2024-03-05T03:12:14.518Z,24.58
2024-03-05T03:14:45.315Z,23.25
2024-03-05T03:17:12.472Z,22.50
2024-03-05T03:19:39.259Z,22.80
2024-03-05T03:22:05.976Z,19.42
2024-03-05T03:24:32.823Z,21.20
2024-03-05T03:26:59.619Z,21.05
2024-03-05T03:29:27.813Z,21.27
2024-03-05T03:31:56.435Z,20.70
2024-03-05T03:34:23.373Z,19.58
2024-03-05T03:36:50.250Z,19.00
2024-03-05T03:39:25.192Z,21.30
2024-03-05T03:41:56.501Z,20.55
2024-03-05T03:44:23.782Z,21.05
2024-03-05T03:46:51.489Z,20.35
2024-03-05T03:49:25.176Z,19.88
2024-03-05T03:51:55.434Z,19.27
2024-03-05T03:54:23.042Z,19.65
2024-03-05T03:56:50.084Z,20.83
2024-03-05T03:59:17.084Z,21.27
2024-03-05T04:01:51.044Z,19.77
2024-03-05T04:04:17.970Z,20.58
2024-03-05T04:06:46.577Z,19.60
2024-03-05T04:09:15.429Z,19.08
2024-03-05T04:11:42.956Z,17.25
2024-03-05T04:14:10.382Z,18.80
2024-03-05T04:16:41.267Z,17.80
2024-03-05T04:19:10.954Z,17.48
2024-03-05T04:21:43.994Z,16.55
2024-03-05T04:24:14.820Z,19.90
2024-03-05T04:26:42.834Z,19.08
2024-03-05T04:29:17.085Z,16.45
2024-03-05T04:31:50.197Z,18.42
2024-03-05T04:34:20.943Z,14.23
2024-03-05T04:36:47.894Z,16.67
2024-03-05T04:39:17.789Z,14.20
2024-03-05T04:41:45.632Z,15.10
2024-03-05T04:44:12.302Z,22.25
2024-03-05T04:46:39.643Z,21.17
2024-03-05T04:49:07.541Z,19.13
2024-03-05T04:51:34.424Z,19.52
2024-03-05T04:54:01.113Z,22.65
2024-03-05T04:56:27.911Z,19.17
2024-03-05T04:58:54.767Z,19.50
2024-03-05T05:01:21.852Z,24.35
2024-03-05T05:03:48.568Z,19.55
2024-03-05T05:06:16.706Z,17.92
2024-03-05T05:08:43.878Z,20.55
2024-03-05T05:11:10.846Z,21.48
2024-03-05T05:13:37.729Z,22.60
2024-03-05T05:16:06.327Z,22.70
2024-03-05T05:18:33.165Z,17.55
2024-03-05T05:21:00.065Z,18.17
2024-03-05T05:23:27.042Z,19.65
2024-03-05T05:25:54.069Z,20.40
2024-03-05T05:28:20.937Z,21.33
2024-03-05T05:30:47.710Z,21.80
2024-03-05T05:33:14.518Z,20.25
2024-03-05T05:35:41.437Z,23.20
2024-03-05T05:38:11.811Z,17.48
2024-03-05T05:40:38.796Z,19.60
2024-03-05T05:43:05.618Z,18.00
2024-03-05T05:45:32.418Z,19.45
2024-03-05T05:47:59.557Z,20.98
2024-03-05T05:50:32.889Z,18.63
2024-03-05T05:53:00.472Z,18.77
2024-03-05T05:55:27.807Z,18.20
2024-03-05T05:57:55.545Z,19.42
2024-03-05T06:00:26.162Z,18.42
2024-03-05T06:02:54.187Z,18.98
2024-03-05T06:05:26.013Z,20.45
2024-03-05T06:07:53.058Z,18.02
2024-03-05T06:10:19.962Z,17.08
2024-03-05T06:12:46.886Z,18.33
2024-03-05T06:15:13.915Z,17.80
2024-03-05T06:17:41.332Z,17.40
2024-03-05T06:20:11.608Z,16.48
2024-03-05T06:22:42.488Z,14.63
2024-03-05T06:25:09.788Z,15.73
2024-03-05T06:27:39.679Z,13.60
2024-03-05T06:30:19.506Z,14.90
2024-03-05T06:32:48.822Z,12.18
2024-03-05T06:35:27.416Z,13.32
2024-03-05T06:37:55.070Z,12.32
2024-03-05T06:40:23.981Z,11.90
2024-03-05T06:42:54.260Z,11.75
2024-03-05T06:45:30.616Z,12.15
2024-03-05T06:50:38.325Z,10.35
2024-03-05T06:53:24.211Z,12.07
2024-03-05T06:56:09.532Z,11.60
2024-03-05T06:58:40.595Z,14.05
2024-03-05T07:01:10.132Z,12.93
2024-03-05T07:03:38.115Z,12.30
2024-03-05T07:06:08.348Z,11.55
2024-03-05T07:08:41.899Z,11.65
2024-03-05T07:11:11.290Z,11.48
2024-03-05T07:13:48.656Z,11.68
2024-03-05T07:16:19.481Z,10.57
2024-03-05T07:18:50.864Z,11.93
2024-03-05T07:21:22.844Z,11.13
2024-03-05T07:23:53.799Z,10.32
2024-03-05T07:26:21.695Z,9.18
2024-03-05T07:28:48.833Z,9.00
2024-03-05T07:31:16.448Z,8.70
2024-03-05T07:33:44.550Z,9.18
2024-03-05T07:36:12.054Z,8.30
2024-03-05T07:38:39.897Z,8.18
2024-03-05T07:41:17.147Z,7.68
2024-03-05T07:43:49.301Z,6.15
2024-03-05T07:46:18.737Z,7.15
2024-03-05T07:48:45.692Z,8.13
2024-03-05T07:51:13.056Z,7.63
2024-03-05T07:53:42.770Z,7.25
2024-03-05T07:56:09.832Z,8.23
2024-03-05T07:58:36.568Z,7.25
2024-03-05T08:01:03.423Z,7.30
2024-03-05T08:03:30.151Z,7.25
2024-03-05T08:05:58.647Z,7.53
2024-03-05T08:08:26.698Z,7.22
2024-03-05T08:10:53.564Z,6.90
2024-03-05T08:13:21.346Z,6.40
2024-03-05T08:15:48.052Z,5.70
2024-03-05T08:18:14.795Z,6.03
2024-03-05T08:20:41.586Z,6.15
2024-03-05T08:23:08.980Z,5.47
2024-03-05T08:25:35.813Z,6.13
2024-03-05T08:28:02.534Z,6.20
2024-03-05T08:30:33.632Z,6.45
2024-03-05T08:33:04.865Z,6.18
2024-03-05T08:35:32.550Z,6.28
2024-03-05T08:38:01.091Z,9.55
2024-03-05T08:40:33.611Z,36.47
2024-03-05T08:43:04.864Z,22.08
2024-03-05T08:45:32.410Z,22.38
2024-03-05T08:47:59.519Z,11.18
2024-03-05T08:50:30.301Z,8.15
2024-03-05T08:52:59.373Z,6.93
2024-03-05T08:55:27.196Z,6.93
2024-03-05T08:57:55.038Z,7.78
2024-03-05T09:00:32.728Z,8.80
2024-03-05T09:03:09.199Z,8.23
2024-03-05T09:05:36.856Z,7.82
2024-03-05T09:08:04.139Z,7.22
2024-03-05T09:10:31.666Z,7.75
2024-03-05T09:12:59.689Z,8.43
2024-03-05T09:15:29.446Z,8.38
2024-03-05T09:17:56.242Z,7.88
2024-03-05T09:20:24.543Z,8.13
2024-03-05T09:22:51.396Z,41.05
2024-03-05T09:25:18.508Z,65.82
2024-03-05T09:27:48.253Z,47.00
2024-03-05T09:30:17.075Z,77.20
2024-03-05T09:32:45.491Z,25.40
2024-03-05T09:35:14.283Z,17.30
2024-03-05T09:37:41.760Z,14.77
2024-03-05T09:40:17.068Z,16.45
2024-03-05T09:42:44.289Z,21.52
2024-03-05T09:45:15.311Z,23.38
2024-03-05T09:50:12.771Z,25.27
2024-03-05T09:52:39.804Z,23.50
2024-03-05T09:55:07.673Z,17.85
2024-03-05T09:57:35.160Z,16.00
2024-03-05T10:00:01.781Z,20.38
2024-03-05T10:02:29.957Z,18.65
2024-03-05T10:04:58.097Z,18.27
2024-03-05T10:07:27.040Z,17.08
2024-03-05T10:10:12.576Z,18.33
2024-03-05T10:12:40.680Z,18.55
2024-03-05T10:15:23.870Z,17.27
2024-03-05T10:17:52.169Z,19.92
2024-03-05T10:20:29.588Z,17.92
2024-03-05T10:23:02.413Z,20.08
2024-03-05T10:25:30.162Z,18.83
2024-03-05T10:27:57.244Z,16.95
2024-03-05T10:30:33.154Z,19.85
2024-03-05T10:33:11.068Z,23.52
2024-03-05T10:35:39.525Z,21.13
2024-03-05T10:38:11.887Z,18.65
2024-03-05T10:40:39.448Z,19.00
2024-03-05T10:43:08.131Z,18.75
2024-03-05T10:45:36.095Z,18.13
2024-03-05T10:48:02.919Z,16.23
2024-03-05T10:50:29.865Z,16.45
2024-03-05T10:52:57.231Z,16.08
2024-03-05T10:55:24.560Z,18.75
2024-03-05T10:58:15.708Z,16.52
2024-03-05T11:00:45.049Z,17.38
2024-03-05T11:03:13.925Z,15.80
2024-03-05T11:06:01.502Z,15.93
2024-03-05T11:08:28.183Z,20.73
2024-03-05T11:11:00.390Z,16.25
2024-03-05T11:13:27.727Z,12.75
2024-03-05T11:15:54.396Z,14.38
2024-03-05T11:18:32.705Z,14.55
2024-03-05T11:21:12.830Z,13.50
2024-03-05T11:23:43.827Z,12.75
2024-03-05T11:26:21.368Z,13.13
2024-03-05T11:28:48.817Z,13.00
2024-03-05T11:31:22.477Z,11.80
2024-03-05T11:33:59.592Z,10.38
2024-03-05T11:36:26.297Z,11.45
2024-03-05T11:39:08.792Z,11.02
2024-03-05T11:41:39.954Z,9.57
2024-03-05T11:44:06.711Z,9.52
2024-03-05T11:46:42.901Z,10.48
2024-03-05T11:49:10.483Z,8.68
2024-03-05T11:51:38.629Z,9.63
2024-03-05T11:54:05.266Z,10.18
2024-03-05T11:56:33.152Z,11.63
2024-03-05T11:59:00.040Z,11.13
2024-03-05T12:01:27.034Z,11.35
2024-03-05T12:04:01.897Z,13.25
2024-03-05T12:06:28.573Z,14.27
2024-03-05T12:08:58.022Z,14.88
2024-03-05T12:11:24.833Z,13.68
2024-03-05T12:13:51.644Z,13.00
2024-03-05T12:16:18.446Z,12.70
2024-03-05T12:18:45.158Z,9.88
2024-03-05T12:21:11.918Z,9.70
2024-03-05T12:23:42.056Z,11.20
2024-03-05T12:26:10.512Z,10.48
2024-03-05T12:28:37.362Z,9.65
2024-03-05T12:31:04.303Z,9.70
2024-03-05T12:33:31.894Z,9.55
2024-03-05T12:35:59.629Z,10.40
2024-03-05T12:38:26.949Z,10.27
2024-03-05T12:41:00.747Z,9.80
2024-03-05T12:43:30.354Z,11.15
2024-03-05T12:46:03.734Z,11.32
2024-03-05T12:48:33.893Z,10.77
2024-03-05T12:51:00.913Z,16.30
2024-03-05T12:53:27.851Z,10.07
2024-03-05T12:56:02.616Z,12.77
2024-03-05T12:58:40.550Z,12.75
2024-03-05T13:01:07.904Z,11.82
2024-03-05T13:03:35.326Z,12.02
2024-03-05T13:06:02.345Z,13.20
2024-03-05T13:08:29.172Z,11.38
2024-03-05T13:10:56.855Z,14.10
2024-03-05T13:13:23.751Z,11.57
2024-03-05T13:15:50.518Z,9.95
2024-03-05T13:18:17.594Z,10.93
2024-03-05T13:20:44.273Z,10.32
2024-03-05T13:23:11.131Z,10.38
2024-03-05T13:25:38.018Z,10.30
2024-03-05T13:28:06.529Z,10.98
2024-03-05T13:30:33.349Z,14.20
2024-03-05T13:33:03.785Z,11.02
2024-03-05T13:35:31.910Z,18.83
2024-03-05T13:37:59.018Z,11.32
2024-03-05T13:40:26.003Z,9.57
2024-03-05T13:42:52.865Z,9.30
2024-03-05T13:45:20.369Z,9.02
2024-03-05T13:47:47.168Z,9.07
2024-03-05T13:50:14.808Z,9.13
2024-03-05T13:52:43.828Z,9.68
2024-03-05T13:55:15.048Z,11.07
2024-03-05T13:57:41.894Z,9.27
2024-03-05T14:00:09.721Z,8.88
2024-03-05T14:02:36.890Z,9.23
2024-03-05T14:05:04.481Z,9.82
2024-03-05T14:07:32.034Z,11.05
2024-03-05T14:09:58.908Z,8.93
2024-03-05T14:12:25.786Z,10.55
2024-03-05T14:14:52.699Z,8.45
2024-03-05T14:17:19.552Z,9.40
2024-03-05T14:19:46.614Z,9.20
2024-03-05T14:22:13.730Z,11.00
2024-03-05T14:24:40.577Z,9.20
2024-03-05T14:27:07.277Z,9.55
2024-03-05T14:29:34.100Z,11.77
2024-03-05T14:32:01.191Z,9.90
2024-03-05T14:34:28.384Z,11.75
2024-03-05T14:36:55.193Z,10.75
2024-03-05T14:39:22.478Z,14.27
2024-03-05T14:41:49.234Z,8.38
2024-03-05T14:44:16.529Z,22.35
2024-03-05T14:46:43.449Z,16.85
2024-03-05T14:49:12.376Z,22.00
2024-03-05T14:51:39.340Z,26.55
2024-03-05T14:54:08.256Z,10.48
2024-03-05T14:56:37.606Z,9.45
2024-03-05T14:59:05.850Z,10.10
2024-03-05T15:01:33.764Z,11.48
2024-03-05T15:04:01.671Z,9.30
2024-03-05T15:06:28.435Z,11.90
2024-03-05T15:08:55.737Z,18.02
2024-03-05T15:11:23.748Z,35.65
2024-03-05T15:13:50.813Z,12.93
2024-03-05T15:16:17.696Z,8.32
2024-03-05T15:18:44.507Z,9.63
2024-03-05T15:21:17.308Z,13.82
2024-03-05T15:23:44.194Z,15.38
2024-03-05T15:26:11.806Z,14.88
2024-03-05T15:28:39.040Z,14.10
2024-03-05T15:31:10.622Z,11.15
2024-03-05T15:33:43.378Z,14.23
2024-03-05T15:36:10.006Z,13.50
2024-03-05T15:38:36.826Z,12.38
2024-03-05T15:41:05.103Z,12.55
2024-03-05T15:43:35.188Z,12.23
2024-03-05T15:46:01.996Z,12.48
2024-03-05T15:48:31.736Z,12.95
2024-03-05T15:51:01.842Z,12.23
2024-03-05T15:53:29.071Z,11.85
2024-03-05T15:56:13.871Z,12.23
2024-03-05T15:58:43.798Z,12.57
2024-03-05T16:01:11.410Z,10.85
2024-03-05T16:03:47.857Z,12.98
2024-03-05T16:06:27.846Z,15.63
2024-03-05T16:08:54.732Z,14.30
2024-03-05T16:11:21.477Z,13.57
2024-03-05T16:13:48.279Z,13.70
2024-03-05T16:16:15.737Z,13.63
2024-03-05T16:18:44.250Z,12.95
2024-03-05T16:21:11.018Z,12.07
2024-03-05T16:23:37.801Z,11.10
2024-03-05T16:26:06.002Z,12.63
2024-03-05T16:28:38.602Z,13.02
2024-03-05T16:31:06.211Z,12.07
2024-03-05T16:33:34.046Z,12.88
2024-03-05T16:36:00.794Z,11.48
2024-03-05T16:38:30.013Z,11.05
2024-03-05T16:40:57.941Z,11.52
2024-03-05T16:43:25.305Z,10.70
2024-03-05T16:45:53.574Z,10.00
2024-03-05T16:48:20.552Z,11.90
2024-03-05T16:50:47.399Z,10.30
2024-03-05T16:53:16.192Z,10.60
2024-03-05T16:55:44.872Z,14.98
2024-03-05T16:58:15.067Z,9.18
2024-03-05T17:00:56.246Z,10.68
2024-03-05T17:03:25.509Z,11.30
2024-03-05T17:05:54.152Z,12.68
2024-03-05T17:08:21.658Z,26.75
2024-03-05T17:10:49.514Z,14.27
2024-03-05T17:13:20.575Z,15.10
2024-03-05T17:15:52.853Z,14.88
2024-03-05T17:18:20.501Z,12.50
2024-03-05T17:20:48.097Z,11.23
2024-03-05T17:23:22.239Z,9.77
2024-03-05T17:25:53.165Z,9.52
2024-03-05T17:28:20.124Z,9.55
2024-03-05T17:30:47.420Z,9.00
2024-03-05T17:33:15.859Z,8.95
2024-03-05T17:35:43.138Z,9.27
2024-03-05T17:38:14.226Z,10.52
2024-03-05T17:40:41.526Z,11.23
2024-03-05T17:43:08.695Z,13.30
2024-03-05T17:45:35.558Z,10.68
2024-03-05T17:48:08.697Z,9.27
2024-03-05T17:50:36.161Z,10.10
2024-03-05T17:53:06.304Z,9.75
2024-03-05T17:55:33.771Z,10.27
2024-03-05T17:58:00.693Z,8.93
2024-03-05T18:00:27.469Z,10.13
2024-03-05T18:02:55.704Z,8.80
2024-03-05T18:05:25.621Z,10.10
2024-03-05T18:07:52.825Z,10.60
2024-03-05T18:10:20.938Z,10.02
2024-03-05T18:12:49.935Z,9.52
2024-03-05T18:15:25.227Z,9.77
2024-03-05T18:17:53.018Z,9.68
2024-03-05T18:20:21.017Z,9.55
2024-03-05T18:22:48.174Z,10.02
2024-03-05T18:25:18.557Z,11.48
2024-03-05T18:27:57.426Z,13.80
2024-03-05T18:30:32.544Z,28.35
2024-03-05T18:33:00.426Z,22.13
2024-03-05T18:35:28.195Z,13.48
2024-03-05T18:37:55.244Z,13.60
2024-03-05T18:40:22.567Z,17.70
2024-03-05T18:42:50.420Z,12.82
2024-03-05T18:45:17.595Z,17.15
2024-03-05T18:47:58.420Z,15.70
2024-03-05T18:50:30.305Z,11.60
2024-03-05T18:53:02.463Z,15.38
2024-03-05T18:57:58.121Z,12.88
2024-03-05T19:00:25.095Z,8.20
2024-03-05T19:02:55.019Z,7.93
2024-03-05T19:05:23.388Z,8.52
2024-03-05T19:07:50.587Z,8.38
2024-03-05T19:10:18.427Z,12.38
2024-03-05T19:12:45.268Z,21.20
2024-03-05T19:15:14.060Z,17.25
2024-03-05T19:17:42.062Z,21.38
2024-03-05T19:20:10.751Z,14.48
2024-03-05T19:22:39.812Z,16.30
2024-03-05T19:25:11.776Z,16.92
2024-03-05T19:27:39.803Z,16.02
2024-03-05T19:30:11.608Z,15.65
2024-03-05T19:32:43.240Z,14.65
2024-03-05T19:35:11.640Z,14.02
2024-03-05T19:37:41.104Z,14.52
2024-03-05T19:40:09.119Z,17.02
2024-03-05T19:42:35.829Z,16.38
2024-03-05T19:45:02.558Z,13.55
2024-03-05T19:47:30.429Z,14.07
2024-03-05T19:49:57.325Z,12.13
2024-03-05T19:52:24.409Z,14.88
2024-03-05T19:54:51.225Z,14.85
2024-03-05T19:57:19.046Z,14.73
2024-03-05T19:59:47.172Z,14.85
2024-03-05T20:02:13.976Z,13.45
2024-03-05T20:04:40.783Z,15.00
2024-03-05T20:07:07.526Z,12.05
2024-03-05T20:09:36.184Z,11.93
2024-03-05T20:12:03.157Z,15.80
2024-03-05T20:14:30.011Z,14.63
2024-03-05T20:16:56.795Z,12.63
2024-03-05T20:19:23.566Z,12.43
2024-03-05T20:21:50.279Z,14.23
2024-03-05T20:24:17.041Z,15.48
2024-03-05T20:26:45.936Z,16.50
2024-03-05T20:29:12.865Z,11.35
2024-03-05T20:31:39.651Z,11.13
2024-03-05T20:34:06.777Z,10.27
2024-03-05T20:36:34.356Z,10.00
2024-03-05T20:39:01.241Z,10.35
2024-03-05T20:41:27.943Z,10.38
2024-03-05T20:43:54.728Z,10.32
2024-03-05T20:46:21.585Z,10.68
2024-03-05T20:48:48.346Z,10.15
2024-03-05T20:51:15.410Z,11.13
2024-03-05T20:53:43.592Z,10.75
2024-03-05T20:56:10.472Z,10.48
2024-03-05T20:58:39.011Z,12.23
2024-03-05T21:01:07.456Z,11.50
2024-03-05T21:03:34.213Z,11.18
2024-03-05T21:06:00.884Z,10.50
2024-03-05T21:08:27.686Z,10.32
2024-03-05T21:10:54.545Z,10.95
2024-03-05T21:13:25.951Z,11.18
2024-03-05T21:15:53.111Z,11.95
2024-03-05T21:18:20.001Z,11.85
2024-03-05T21:20:46.750Z,12.70
2024-03-05T21:23:16.797Z,13.02
2024-03-05T21:25:56.544Z,12.93
2024-03-05T21:28:31.723Z,10.32
2024-03-05T21:31:00.504Z,10.45
2024-03-05T21:33:27.181Z,11.93
2024-03-05T21:35:53.942Z,12.32
2024-03-05T21:38:20.657Z,17.27
2024-03-05T21:40:47.794Z,17.10
2024-03-05T21:43:16.414Z,35.50
2024-03-05T21:45:43.903Z,19.80
2024-03-05T21:48:10.683Z,16.45
2024-03-05T21:50:37.355Z,13.95
2024-03-05T21:53:04.170Z,13.43
2024-03-05T21:55:30.956Z,12.40
2024-03-05T21:57:57.611Z,12.65
2024-03-05T22:00:25.042Z,12.45
2024-03-05T22:02:51.834Z,10.95
2024-03-05T22:05:18.868Z,10.48
2024-03-05T22:07:45.756Z,9.60
2024-03-05T22:10:13.000Z,9.90
2024-03-05T22:12:40.066Z,10.30
2024-03-05T22:15:07.889Z,10.23
2024-03-05T22:17:35.278Z,9.00
2024-03-05T22:20:02.255Z,9.57
2024-03-05T22:22:29.141Z,9.07
2024-03-05T22:24:56.822Z,9.32
2024-03-05T22:27:23.675Z,9.55
2024-03-05T22:29:50.335Z,10.63
2024-03-05T22:32:17.107Z,11.82
2024-03-05T22:34:43.788Z,10.38
2024-03-05T22:37:10.735Z,9.73
2024-03-05T22:39:38.766Z,9.57
2024-03-05T22:42:05.445Z,8.98
2024-03-05T22:44:32.298Z,21.45
2024-03-05T22:46:59.108Z,10.65
2024-03-05T22:49:25.863Z,8.95
2024-03-05T22:51:52.572Z,10.50
2024-03-05T22:54:19.333Z,10.35
2024-03-05T22:56:53.984Z,9.48
2024-03-05T22:59:20.805Z,9.30
2024-03-05T23:01:47.986Z,8.90
2024-03-05T23:04:14.794Z,8.27
2024-03-05T23:06:41.679Z,8.18
2024-03-05T23:09:08.391Z,8.63
2024-03-05T23:11:35.366Z,8.20
2024-03-05T23:14:02.171Z,8.43
2024-03-05T23:16:28.927Z,8.32
2024-03-05T23:18:55.671Z,7.72
2024-03-05T23:21:22.355Z,7.78
2024-03-05T23:23:50.544Z,7.45
2024-03-05T23:26:19.260Z,8.30
2024-03-05T23:28:46.143Z,7.93
2024-03-05T23:31:12.807Z,6.85
2024-03-05T23:33:39.655Z,7.97
2024-03-05T23:36:06.602Z,6.93
2024-03-05T23:38:33.253Z,7.60
2024-03-05T23:41:00.643Z,8.18
2024-03-05T23:43:27.372Z,7.78
2024-03-05T23:45:55.522Z,7.97
2024-03-05T23:48:22.426Z,8.50
2024-03-05T23:50:49.530Z,8.25
2024-03-05T23:53:17.222Z,7.65
2024-03-05T23:55:44.973Z,9.50
2024-03-05T23:58:11.629Z,9.50
